Time;durP1;ratioP1;P1;durP2;ratioP2;P2;SDS_P1;SDS_P2;PMS_P1;PMS_P2;Temp;Humidity;BMP_temperature;BMP_pressure;BME280_temperature;BME280_humidity;BME280_pressure;Samples;Min_cycle;Max_cycle;Signal;HPM_P1;HPM_P2
2021/03/02 00:00:54;;;;;;;30.80;24.40;;;3.70;99.90;;;;;;5032934;28;20653;-67
2021/03/02 00:03:28;;;;;;;29.70;24.50;;;3.60;99.90;;;;;;5026806;28;20658;-68
2021/03/02 00:06:13;;;;;;;27.00;23.53;;;3.50;99.90;;;;;;5036147;28;20615;-69
2021/03/02 00:08:51;;;;;;;29.30;24.30;;;3.50;99.90;;;;;;5031495;28;21168;-70
2021/03/02 00:11:17;;;;;;;32.67;25.87;;;3.50;99.90;;;;;;5033419;28;20647;-68
2021/03/02 00:13:48;;;;;;;29.17;24.50;;;3.50;99.90;;;;;;5048007;28;20673;-69
2021/03/02 00:16:29;;;;;;;31.13;24.27;;;3.50;99.90;;;;;;5032809;28;21218;-69
2021/03/02 00:19:17;;;;;;;30.50;24.03;;;3.40;99.90;;;;;;5044889;28;20678;-69
2021/03/02 00:22:09;;;;;;;31.87;25.60;;;3.40;99.90;;;;;;5047524;28;20633;-69
2021/03/02 00:24:40;;;;;;;32.50;25.00;;;3.30;99.90;;;;;;5024937;28;20652;-68
2021/03/02 00:27:14;;;;;;;30.13;24.33;;;3.30;99.90;;;;;;5026938;28;20676;-68
2021/03/02 00:29:44;;;;;;;29.00;23.67;;;3.30;99.90;;;;;;5027785;28;20618;-69
2021/03/02 00:32:16;;;;;;;28.30;24.77;;;3.20;99.90;;;;;;5029429;28;20629;-68
2021/03/02 00:34:47;;;;;;;31.30;25.30;;;3.30;99.90;;;;;;5036223;28;20670;-69
2021/03/02 00:37:12;;;;;;;32.97;24.90;;;3.20;99.90;;;;;;5023654;28;21268;-69
2021/03/02 00:39:43;;;;;;;29.97;24.50;;;3.20;99.90;;;;;;5013369;28;20619;-69
2021/03/02 00:42:14;;;;;;;28.80;24.60;;;3.20;99.90;;;;;;5030437;28;20290;-69
2021/03/02 00:44:39;;;;;;;29.33;24.63;;;3.20;99.90;;;;;;5031007;28;20658;-69
2021/03/02 00:47:10;;;;;;;34.20;25.50;;;3.20;99.90;;;;;;5048418;28;20618;-69
2021/03/02 00:49:46;;;;;;;32.20;25.47;;;3.20;99.90;;;;;;5047172;28;20218;-69
2021/03/02 00:52:12;;;;;;;33.17;24.67;;;3.10;99.90;;;;;;5029485;28;20687;-68
2021/03/02 00:54:40;;;;;;;30.60;25.37;;;3.10;99.90;;;;;;5045658;28;20642;-69
2021/03/02 00:57:14;;;;;;;35.63;26.47;;;3.10;99.90;;;;;;5039500;28;20200;-68
2021/03/02 00:59:58;;;;;;;29.67;25.57;;;3.10;99.90;;;;;;5041975;28;20632;-68
2021/03/02 01:02:23;;;;;;;31.07;25.90;;;3.00;99.90;;;;;;5026939;28;20714;-69
2021/03/02 01:04:56;;;;;;;30.97;25.10;;;3.00;99.90;;;;;;5040302;28;20710;-69
2021/03/02 01:07:24;;;;;;;31.30;25.60;;;3.00;99.90;;;;;;5040406;28;20242;-69
2021/03/02 01:09:55;;;;;;;27.90;23.87;;;3.00;99.90;;;;;;5052665;28;20965;-69
2021/03/02 01:12:26;;;;;;;29.53;25.37;;;3.00;99.90;;;;;;5024970;28;20638;-68
2021/03/02 01:14:57;;;;;;;33.80;26.33;;;2.90;99.90;;;;;;5041348;28;20700;-69
2021/03/02 01:17:29;;;;;;;33.20;26.50;;;2.90;99.90;;;;;;5013477;28;21244;-69
2021/03/02 01:20:00;;;;;;;31.97;26.30;;;2.90;99.90;;;;;;5033320;28;20623;-68
2021/03/02 01:22:26;;;;;;;32.87;26.50;;;2.90;99.90;;;;;;5052433;28;20590;-69
2021/03/02 01:25:01;;;;;;;29.90;25.27;;;2.90;99.90;;;;;;5028406;28;20637;-69
2021/03/02 01:27:27;;;;;;;32.53;26.60;;;2.90;99.90;;;;;;5041895;28;20234;-69
2021/03/02 01:29:53;;;;;;;32.67;26.40;;;2.80;99.90;;;;;;5026618;28;20622;-68
2021/03/02 01:32:24;;;;;;;32.77;27.27;;;2.90;99.90;;;;;;5036592;28;20674;-69
2021/03/02 01:34:52;;;;;;;31.27;25.40;;;2.80;99.90;;;;;;5015595;28;20220;-69
2021/03/02 01:37:18;;;;;;;34.30;26.87;;;2.80;99.90;;;;;;5032180;28;20666;-68
2021/03/02 01:39:43;;;;;;;36.10;26.70;;;2.80;99.90;;;;;;5031844;28;21313;-68
2021/03/02 01:42:17;;;;;;;30.90;25.23;;;2.70;99.90;;;;;;5031476;28;20195;-68
2021/03/02 01:44:49;;;;;;;32.67;26.33;;;2.70;99.90;;;;;;5034439;28;20701;-69
2021/03/02 01:47:44;;;;;;;31.00;25.37;;;2.80;99.90;;;;;;5036254;28;20742;-69
2021/03/02 01:50:14;;;;;;;33.20;26.10;;;2.70;99.90;;;;;;5025424;28;20634;-69
2021/03/02 01:52:46;;;;;;;29.07;24.57;;;2.70;99.90;;;;;;5023419;28;20619;-69
2021/03/02 01:55:19;;;;;;;31.60;25.90;;;2.70;99.90;;;;;;5048667;28;21191;-68
2021/03/02 01:57:50;;;;;;;32.60;26.07;;;2.60;99.90;;;;;;5033017;28;20686;-68
2021/03/02 02:00:35;;;;;;;32.67;27.50;;;2.60;99.90;;;;;;5033068;28;20614;-69
2021/03/02 02:03:31;;;;;;;31.87;26.23;;;2.60;99.90;;;;;;5030449;28;20729;-67
2021/03/02 02:06:27;;;;;;;;;;;;;;;;;;;;;
2021/03/02 02:09:10;;;;;;;35.20;26.63;;;2.60;99.90;;;;;;5052985;28;20686;-69
2021/03/02 02:12:07;;;;;;;35.80;27.60;;;2.50;99.90;;;;;;5027205;28;20685;-69
2021/03/02 02:14:54;;;;;;;35.47;26.43;;;2.50;99.90;;;;;;5032974;28;20654;-68
2021/03/02 02:17:35;;;;;;;33.30;26.00;;;2.50;99.90;;;;;;5017364;28;20661;-68
2021/03/02 02:20:09;;;;;;;33.13;25.27;;;2.50;99.90;;;;;;5042845;28;20664;-68
2021/03/02 02:23:15;;;;;;;28.97;24.40;;;2.40;99.90;;;;;;5031314;28;20617;-69
2021/03/02 02:26:30;;;;;;;32.83;24.90;;;2.50;99.90;;;;;;5048643;28;20737;-68
2021/03/02 02:29:06;;;;;;;29.87;23.73;;;2.40;99.90;;;;;;5027039;28;20631;-69
2021/03/02 02:31:38;;;;;;;29.17;23.30;;;2.40;99.90;;;;;;5040209;28;21025;-69
2021/03/02 02:34:15;;;;;;;30.40;24.70;;;2.40;99.90;;;;;;5034595;28;20752;-69
2021/03/02 02:37:00;;;;;;;27.70;23.50;;;2.40;99.90;;;;;;5031427;28;20664;-68
2021/03/02 02:40:03;;;;;;;37.37;24.67;;;2.40;99.90;;;;;;5031085;28;20664;-69
2021/03/02 02:42:36;;;;;;;30.73;24.97;;;2.40;99.90;;;;;;5033625;28;20668;-68
2021/03/02 02:45:12;;;;;;;32.30;24.90;;;2.40;99.90;;;;;;5046502;28;20657;-69
2021/03/02 02:47:46;;;;;;;30.53;23.27;;;2.40;99.90;;;;;;5030433;28;20627;-68
2021/03/02 02:50:15;;;;;;;31.40;24.80;;;2.30;99.90;;;;;;5050622;28;20614;-69
2021/03/02 02:52:52;;;;;;;30.63;23.20;;;2.30;99.90;;;;;;5044173;28;20737;-68
2021/03/02 02:55:54;;;;;;;33.90;24.70;;;2.30;99.90;;;;;;5042462;28;21164;-69
2021/03/02 02:58:33;;;;;;;28.73;24.50;;;2.40;99.90;;;;;;5031938;28;20715;-69
2021/03/02 03:01:05;;;;;;;30.97;24.10;;;2.30;99.90;;;;;;5039080;28;20715;-69
2021/03/02 03:03:38;;;;;;;32.53;24.43;;;2.30;99.90;;;;;;5035220;28;21056;-68
2021/03/02 03:06:12;;;;;;;29.77;24.77;;;2.30;99.90;;;;;;5031867;28;20607;-68
2021/03/02 03:08:52;;;;;;;31.60;24.83;;;2.20;99.90;;;;;;5027515;28;20662;-69
2021/03/02 03:11:25;;;;;;;29.50;23.40;;;2.20;99.90;;;;;;5023171;28;21191;-69
2021/03/02 03:13:52;;;;;;;30.60;23.63;;;2.20;99.90;;;;;;5046500;28;21075;-69
2021/03/02 03:16:27;;;;;;;32.30;23.63;;;2.20;99.90;;;;;;5031386;28;21536;-68
2021/03/02 03:19:00;;;;;;;29.70;22.90;;;2.20;99.90;;;;;;5026690;28;20673;-68
2021/03/02 03:21:33;;;;;;;31.13;23.00;;;2.10;99.90;;;;;;5044367;28;20666;-69
2021/03/02 03:24:02;;;;;;;31.10;22.77;;;2.10;99.90;;;;;;5024444;28;21296;-68
2021/03/02 03:26:36;;;;;;;29.60;22.57;;;2.10;99.90;;;;;;5025684;28;20628;-68
2021/03/02 03:29:02;;;;;;;31.77;23.03;;;2.10;99.90;;;;;;5021279;28;20676;-68
2021/03/02 03:31:39;;;;;;;29.80;22.30;;;2.10;99.90;;;;;;5031523;28;20722;-68
2021/03/02 03:34:17;;;;;;;29.10;22.17;;;2.10;99.90;;;;;;5038101;28;21041;-69
2021/03/02 03:37:12;;;;;;;30.27;24.30;;;2.10;99.90;;;;;;5027718;28;20690;-69
2021/03/02 03:39:41;;;;;;;32.20;21.40;;;2.10;99.90;;;;;;5049949;28;20590;-67
2021/03/02 03:42:06;;;;;;;27.10;20.80;;;2.10;99.90;;;;;;5033741;28;20611;-69
2021/03/02 03:44:36;;;;;;;28.27;22.27;;;2.00;99.90;;;;;;5043887;28;21192;-68
2021/03/02 03:47:03;;;;;;;27.60;21.77;;;2.00;99.90;;;;;;5048380;28;20180;-68
2021/03/02 03:49:34;;;;;;;27.33;21.60;;;2.00;99.90;;;;;;5031588;28;21240;-68
2021/03/02 03:52:18;;;;;;;28.83;21.60;;;2.00;99.90;;;;;;5046124;28;20618;-69
2021/03/02 03:54:58;;;;;;;28.30;20.70;;;2.00;99.90;;;;;;5020602;28;20770;-69
2021/03/02 03:57:25;;;;;;;25.50;20.33;;;2.00;99.90;;;;;;5030514;28;20701;-68
2021/03/02 04:00:02;;;;;;;26.23;21.27;;;2.00;99.90;;;;;;5025809;28;20630;-69
2021/03/02 04:02:33;;;;;;;27.30;21.30;;;1.90;99.90;;;;;;5045965;28;20590;-69
2021/03/02 04:05:09;;;;;;;30.17;21.87;;;2.00;99.90;;;;;;5045378;28;20657;-71
2021/03/02 04:07:42;;;;;;;26.67;21.07;;;1.90;99.90;;;;;;5035433;28;20626;-68
2021/03/02 04:10:22;;;;;;;;;;;;;;;;;;;;;
2021/03/02 04:12:54;;;;;;;25.87;20.33;;;2.00;99.90;;;;;;5039088;28;20669;-69
2021/03/02 04:15:31;;;;;;;23.97;21.23;;;1.90;99.90;;;;;;5021528;28;21217;-68
2021/03/02 04:18:25;;;;;;;25.37;20.87;;;1.90;99.90;;;;;;5027809;28;20665;-69
2021/03/02 04:20:56;;;;;;;25.93;19.33;;;1.90;99.90;;;;;;5031139;28;20614;-68
2021/03/02 04:23:37;;;;;;;25.90;21.90;;;1.90;99.90;;;;;;5029968;28;20637;-69
2021/03/02 04:26:07;;;;;;;26.77;20.30;;;1.90;99.90;;;;;;5040362;28;21198;-68
2021/03/02 04:28:46;;;;;;;28.30;21.43;;;1.80;99.90;;;;;;5029675;28;20625;-68
2021/03/02 04:31:19;;;;;;;31.20;22.30;;;1.80;99.90;;;;;;5045090;28;21061;-68
2021/03/02 04:33:45;;;;;;;25.20;20.53;;;1.80;99.90;;;;;;5037483;28;20643;-68
2021/03/02 04:36:14;;;;;;;25.90;21.57;;;1.80;99.90;;;;;;5035969;28;20611;-68
2021/03/02 04:38:49;;;;;;;28.17;21.63;;;1.80;99.90;;;;;;5030661;28;20653;-68
2021/03/02 04:41:17;;;;;;;26.00;19.90;;;1.80;99.90;;;;;;5018552;28;20630;-68
2021/03/02 04:43:48;;;;;;;27.50;21.13;;;1.80;99.90;;;;;;5024770;28;20854;-69
2021/03/02 04:46:18;;;;;;;28.37;20.77;;;1.80;99.90;;;;;;5025875;28;20977;-69
2021/03/02 04:48:52;;;;;;;28.37;20.80;;;1.80;99.90;;;;;;5025277;28;20700;-69
2021/03/02 04:51:28;;;;;;;30.60;21.67;;;1.90;99.90;;;;;;5027121;28;21160;-69
2021/03/02 04:53:58;;;;;;;35.83;20.23;;;1.90;99.90;;;;;;5015801;28;21250;-68
2021/03/02 04:56:24;;;;;;;29.70;20.27;;;1.90;99.90;;;;;;5024384;28;21072;-68
2021/03/02 04:58:51;;;;;;;37.80;19.60;;;1.90;99.90;;;;;;5052925;28;20648;-69
2021/03/02 05:01:17;;;;;;;28.10;19.70;;;2.00;99.90;;;;;;5051956;28;20726;-68
2021/03/02 05:03:48;;;;;;;71.30;21.83;;;2.00;99.90;;;;;;5027482;28;20634;-68
2021/03/02 05:06:36;;;;;;;69.90;19.20;;;2.00;99.90;;;;;;5018302;28;20187;-68
2021/03/02 05:09:02;;;;;;;68.20;19.10;;;2.00;99.90;;;;;;5037289;28;20620;-68
2021/03/02 05:11:32;;;;;;;25.70;17.00;;;2.00;99.90;;;;;;5041212;28;21175;-68
2021/03/02 05:14:09;;;;;;;25.40;17.10;;;2.10;99.90;;;;;;5021814;28;20224;-69
2021/03/02 05:19:40;;;;;;;33.93;16.87;;;2.10;99.90;;;;;;5038154;28;20641;-69
2021/03/02 05:22:13;;;;;;;25.27;16.40;;;2.20;99.90;;;;;;5048043;28;21062;-68
2021/03/02 05:24:41;;;;;;;37.80;18.43;;;2.20;99.90;;;;;;5032535;28;21227;-69
2021/03/02 05:27:20;;;;;;;30.50;18.00;;;2.20;99.90;;;;;;5049812;28;20622;-68
2021/03/02 05:29:46;;;;;;;30.30;20.00;;;2.20;99.90;;;;;;5047501;28;20653;-68
2021/03/02 05:32:32;;;;;;;30.43;18.80;;;2.20;99.90;;;;;;5029229;28;20666;-69
2021/03/02 05:35:09;;;;;;;36.57;20.20;;;2.20;99.90;;;;;;5022983;28;20660;-68
2021/03/02 05:37:38;;;;;;;28.67;19.20;;;2.30;99.90;;;;;;5053717;28;20633;-69
2021/03/02 05:40:04;;;;;;;30.00;21.07;;;2.30;99.90;;;;;;5051006;28;20622;-69
2021/03/02 05:43:06;;;;;;;45.30;21.60;;;2.30;99.90;;;;;;5066354;28;20618;-67
2021/03/02 05:45:34;;;;;;;33.40;21.50;;;2.30;99.90;;;;;;5044722;28;20780;-71
2021/03/02 05:48:25;;;;;;;37.73;20.33;;;2.30;99.90;;;;;;5049960;28;20614;-71
2021/03/02 05:51:04;;;;;;;30.20;19.53;;;2.30;99.90;;;;;;5038307;28;20632;-71
2021/03/02 05:53:43;;;;;;;30.27;21.13;;;2.30;99.90;;;;;;5041350;28;21380;-71
2021/03/02 05:56:12;;;;;;;39.57;21.40;;;2.30;99.90;;;;;;5039189;28;20661;-71
2021/03/02 05:58:42;;;;;;;31.27;20.80;;;2.30;99.90;;;;;;5026317;28;20614;-71
2021/03/02 06:01:16;;;;;;;31.37;21.13;;;2.30;99.90;;;;;;5041415;28;20610;-71
2021/03/02 06:03:44;;;;;;;32.83;20.23;;;2.30;99.90;;;;;;5046411;28;20807;-71
2021/03/02 06:06:20;;;;;;;29.73;19.83;;;2.30;99.90;;;;;;5024541;28;20616;-71
2021/03/02 06:08:52;;;;;;;48.23;21.10;;;2.30;99.90;;;;;;5021256;28;21130;-71
2021/03/02 06:11:37;;;;;;;33.30;20.70;;;2.30;99.90;;;;;;5020860;28;20623;-71
2021/03/02 06:14:38;;;;;;;35.03;18.67;;;2.20;99.90;;;;;;5040258;28;20625;-71
2021/03/02 06:17:12;;;;;;;29.90;19.13;;;2.30;99.90;;;;;;5028280;28;20744;-70
2021/03/02 06:19:57;;;;;;;24.77;16.60;;;2.30;99.90;;;;;;5031881;28;21251;-71
2021/03/02 06:22:41;;;;;;;27.73;16.80;;;2.30;99.90;;;;;;5043299;28;20655;-72
2021/03/02 06:25:35;;;;;;;36.47;18.00;;;2.20;99.90;;;;;;5028300;28;20638;-72
2021/03/02 06:28:07;;;;;;;30.60;17.97;;;2.20;99.90;;;;;;5035607;28;20823;-70
2021/03/02 06:30:36;;;;;;;27.43;16.00;;;2.20;99.90;;;;;;5018919;28;20649;-71
2021/03/02 06:33:05;;;;;;;26.67;16.70;;;2.20;99.90;;;;;;5031350;28;20638;-70
2021/03/02 06:35:44;;;;;;;25.67;15.80;;;2.20;99.90;;;;;;5040766;28;20620;-69
2021/03/02 06:38:09;;;;;;;32.17;16.00;;;2.30;99.90;;;;;;5037068;28;21384;-70
2021/03/02 06:40:46;;;;;;;43.00;17.40;;;2.30;99.90;;;;;;5029074;28;20981;-70
2021/03/02 06:43:40;;;;;;;33.00;17.17;;;2.20;99.90;;;;;;5016394;28;20247;-70
2021/03/02 06:46:11;;;;;;;43.07;17.80;;;2.20;99.90;;;;;;5009602;28;21492;-70
2021/03/02 06:49:15;;;;;;;27.60;17.17;;;2.20;99.90;;;;;;5021852;28;20959;-70
2021/03/02 06:51:40;;;;;;;30.73;16.70;;;2.20;99.90;;;;;;5030596;28;20618;-72
2021/03/02 06:54:24;;;;;;;32.20;17.60;;;2.20;99.90;;;;;;5016004;28;20645;-73
2021/03/02 06:57:00;;;;;;;55.10;19.43;;;2.20;99.90;;;;;;5031071;28;20212;-72
2021/03/02 06:59:28;;;;;;;29.23;17.17;;;2.20;99.90;;;;;;5018060;28;21350;-72
2021/03/02 07:01:54;;;;;;;24.20;17.47;;;2.20;99.90;;;;;;5018939;28;20662;-73
2021/03/02 07:04:34;;;;;;;41.80;18.73;;;2.30;99.90;;;;;;5030511;28;21404;-73
2021/03/02 07:07:17;;;;;;;28.30;16.70;;;2.30;99.90;;;;;;5035869;28;20231;-73
2021/03/02 07:09:43;;;;;;;27.13;17.43;;;2.30;99.90;;;;;;5022841;28;21034;-73
2021/03/02 07:12:14;;;;;;;26.37;17.10;;;2.30;99.90;;;;;;5037949;28;20579;-72
2021/03/02 07:14:45;;;;;;;28.43;17.87;;;2.40;99.90;;;;;;5007793;28;20241;-74
2021/03/02 07:40:08;;;;;;;43.40;17.90;;;2.70;99.90;;;;;;5000042;28;20240;-74
2021/03/02 07:42:34;;;;;;;31.00;17.00;;;2.70;99.90;;;;;;5028358;28;20798;-72
2021/03/02 07:45:10;;;;;;;26.23;17.83;;;2.80;99.90;;;;;;5018314;28;20681;-72
2021/03/02 07:47:47;;;;;;;24.87;18.57;;;2.80;99.90;;;;;;5010152;28;23026;-72
2021/03/02 07:50:16;;;;;;;28.53;16.70;;;2.80;99.90;;;;;;5022228;28;20705;-72
2021/03/02 07:52:42;;;;;;;25.83;17.10;;;2.90;99.90;;;;;;5045177;28;20653;-72
2021/03/02 07:55:23;;;;;;;24.50;17.23;;;2.90;99.90;;;;;;5022381;28;20654;-73
2021/03/02 07:58:19;;;;;;;27.43;17.63;;;3.00;99.90;;;;;;5016541;28;20248;-72
2021/03/02 08:00:49;;;;;;;25.80;17.77;;;3.00;99.90;;;;;;5020962;28;20646;-73
2021/03/02 08:03:29;;;;;;;24.77;17.30;;;3.10;99.90;;;;;;5014385;28;20685;-71
2021/03/02 08:06:18;;;;;;;25.97;18.20;;;3.20;99.90;;;;;;5023477;28;20708;-72
2021/03/02 08:08:43;;;;;;;24.97;18.70;;;3.20;99.90;;;;;;5022138;28;20623;-74
2021/03/02 08:11:32;;;;;;;31.43;18.10;;;3.30;99.90;;;;;;5038514;28;20614;-73
2021/03/02 08:13:59;;;;;;;26.43;17.47;;;3.30;99.90;;;;;;5023732;28;20905;-73
2021/03/02 08:16:50;;;;;;;27.13;19.00;;;3.40;99.90;;;;;;5039321;28;20774;-72
2021/03/02 08:19:37;;;;;;;29.50;19.50;;;3.50;99.90;;;;;;5035025;28;21116;-73
2021/03/02 08:22:23;;;;;;;29.47;20.50;;;3.60;99.90;;;;;;5017285;28;20653;-71
2021/03/02 08:25:04;;;;;;;29.57;19.40;;;3.60;99.90;;;;;;5019773;28;20646;-73
2021/03/02 08:27:49;;;;;;;26.30;18.40;;;3.70;99.90;;;;;;5038338;28;20635;-72
2021/03/02 08:30:27;;;;;;;26.33;18.30;;;3.70;99.90;;;;;;5040942;28;20589;-72
2021/03/02 08:32:55;;;;;;;24.80;18.27;;;3.70;99.90;;;;;;5011502;28;20634;-73
2021/03/02 08:35:24;;;;;;;26.67;19.30;;;3.80;99.90;;;;;;5028418;28;20703;-72
2021/03/02 08:37:52;;;;;;;24.70;18.63;;;3.80;99.90;;;;;;5040300;28;20946;-73
2021/03/02 08:40:23;;;;;;;26.97;19.10;;;3.90;99.90;;;;;;5013295;28;20726;-74
2021/03/02 08:43:25;;;;;;;27.40;19.57;;;3.90;99.90;;;;;;5026734;28;20682;-75
2021/03/02 08:45:56;;;;;;;29.10;18.77;;;4.00;99.90;;;;;;5017477;28;20654;-74
2021/03/02 08:48:29;;;;;;;27.40;19.60;;;4.00;99.90;;;;;;5025829;28;20618;-74
2021/03/02 08:50:55;;;;;;;29.43;20.80;;;4.10;99.90;;;;;;5017485;28;20615;-75
2021/03/02 08:53:40;;;;;;;28.83;19.67;;;4.20;99.90;;;;;;5021006;28;22460;-75
2021/03/02 08:56:17;;;;;;;31.30;20.20;;;4.30;99.90;;;;;;5036277;28;20317;-74
2021/03/02 08:58:44;;;;;;;33.43;22.07;;;4.30;99.90;;;;;;5037811;28;20693;-74
2021/03/02 09:01:15;;;;;;;34.63;22.63;;;4.40;99.90;;;;;;5018610;28;20668;-74
2021/03/02 09:03:44;;;;;;;30.47;21.87;;;4.40;99.90;;;;;;5017985;28;21058;-74
2021/03/02 09:06:22;;;;;;;28.37;20.23;;;4.50;99.90;;;;;;5022726;28;20614;-74
2021/03/02 09:08:55;;;;;;;29.27;21.50;;;4.50;99.90;;;;;;5018150;28;20626;-73
2021/03/02 09:11:46;;;;;;;29.00;21.60;;;4.60;99.90;;;;;;5046584;28;20637;-73
2021/03/02 09:14:23;;;;;;;33.17;21.57;;;4.60;99.90;;;;;;5032835;28;20638;-74
2021/03/02 09:17:03;;;;;;;32.97;21.27;;;4.70;99.90;;;;;;5028486;28;20719;-73
2021/03/02 09:19:39;;;;;;;29.80;20.53;;;4.70;99.90;;;;;;5026684;28;20626;-73
2021/03/02 09:22:12;;;;;;;28.73;21.27;;;4.80;99.90;;;;;;5026939;28;20606;-77
2021/03/02 09:24:41;;;;;;;30.90;21.70;;;4.80;99.90;;;;;;5018583;28;20632;-74
2021/03/02 09:27:19;;;;;;;29.37;21.00;;;4.90;99.90;;;;;;5010686;28;20630;-73
2021/03/02 09:29:51;;;;;;;32.10;22.63;;;5.00;99.90;;;;;;5020764;28;21044;-73
2021/03/02 09:32:27;;;;;;;31.37;23.17;;;5.10;99.90;;;;;;5011534;28;20630;-73
2021/03/02 09:35:07;;;;;;;29.10;21.87;;;5.20;99.90;;;;;;5022104;28;20746;-74
2021/03/02 09:37:36;;;;;;;32.23;21.63;;;5.30;99.90;;;;;;5020333;28;20654;-74
2021/03/02 09:42:42;;;;;;;28.80;20.67;;;5.50;99.90;;;;;;5028088;28;20637;-79
2021/03/02 09:45:21;;;;;;;29.07;20.67;;;5.60;99.90;;;;;;4996270;28;20647;-79
2021/03/02 09:48:11;;;;;;;30.00;20.77;;;5.70;99.90;;;;;;5015616;28;20631;-78
2021/03/02 09:50:39;;;;;;;31.33;22.90;;;5.80;99.90;;;;;;5032711;28;20648;-79
2021/03/02 09:53:17;;;;;;;32.23;23.23;;;5.90;99.90;;;;;;5041424;28;20598;-79
2021/03/02 09:55:48;;;;;;;33.90;23.10;;;6.00;99.90;;;;;;5035935;28;20642;-79
2021/03/02 09:58:44;;;;;;;36.97;22.97;;;6.10;99.90;;;;;;4994480;28;20737;-80
2021/03/02 10:01:26;;;;;;;31.00;22.57;;;6.20;99.90;;;;;;5022118;28;20690;-78
2021/03/02 10:03:55;;;;;;;30.03;20.17;;;6.20;99.90;;;;;;5019405;28;20630;-78
2021/03/02 10:06:29;;;;;;;31.73;21.80;;;6.30;99.90;;;;;;5046745;28;20606;-79
2021/03/02 10:12:13;;;;;;;32.67;20.97;;;6.50;99.90;;;;;;5051192;28;20516;-79
2021/03/02 10:15:00;;;;;;;29.40;20.50;;;6.60;99.90;;;;;;5071965;28;20611;-80
2021/03/02 10:17:36;;;;;;;26.90;19.40;;;6.80;99.90;;;;;;5046031;28;20670;-79
2021/03/02 10:20:10;;;;;;;34.47;22.07;;;6.90;99.90;;;;;;5048289;28;20643;-78
2021/03/02 10:22:42;;;;;;;30.87;21.10;;;7.00;99.90;;;;;;5037141;28;20603;-78
2021/03/02 10:25:46;;;;;;;34.30;20.87;;;7.20;99.90;;;;;;5037759;28;20628;-78
2021/03/02 10:34:17;;;;;;;28.73;20.40;;;7.70;99.90;;;;;;5016945;28;20682;-67
2021/03/02 10:36:45;;;;;;;27.90;19.50;;;7.80;99.90;;;;;;5019500;28;20782;-66
2021/03/02 10:39:15;;;;;;;28.17;19.07;;;7.80;99.90;;;;;;4992121;28;20774;-68
2021/03/02 10:41:43;;;;;;;26.90;20.40;;;8.00;99.90;;;;;;5004653;28;20747;-67
2021/03/02 10:44:09;;;;;;;25.57;18.67;;;8.20;99.90;;;;;;5016748;28;20635;-68
2021/03/02 10:46:36;;;;;;;24.97;19.23;;;8.20;99.90;;;;;;5021603;28;21192;-66
2021/03/02 10:49:02;;;;;;;24.73;18.10;;;8.40;99.90;;;;;;5039647;28;20651;-67
2021/03/02 10:51:28;;;;;;;26.17;19.13;;;8.50;99.90;;;;;;5028124;28;20658;-64
2021/03/02 10:53:54;;;;;;;25.13;18.70;;;8.70;99.90;;;;;;5036142;28;20659;-65
2021/03/02 10:56:21;;;;;;;26.57;19.90;;;8.90;99.90;;;;;;5033666;28;20638;-65
2021/03/02 10:58:47;;;;;;;25.83;18.93;;;9.00;99.90;;;;;;5023145;28;21200;-66
2021/03/02 11:01:18;;;;;;;25.57;19.63;;;9.20;99.90;;;;;;5017721;28;21086;-65
2021/03/02 11:03:44;;;;;;;25.90;18.33;;;9.50;99.90;;;;;;5036439;28;20644;-64
2021/03/02 11:06:20;;;;;;;26.80;18.87;;;9.80;99.90;;;;;;5022382;28;21217;-65
2021/03/02 11:08:48;;;;;;;26.20;19.80;;;10.20;99.90;;;;;;5022897;28;20193;-64
2021/03/02 11:11:15;;;;;;;23.90;18.60;;;10.40;99.90;;;;;;5009792;28;20659;-63
2021/03/02 11:13:45;;;;;;;24.17;18.93;;;10.60;99.90;;;;;;5007702;28;20658;-64
2021/03/02 11:16:11;;;;;;;24.33;20.00;;;10.90;99.90;;;;;;5016182;28;20631;-64
2021/03/02 11:18:37;;;;;;;70.73;56.27;;;11.20;99.90;;;;;;5029058;28;20674;-64
2021/03/02 11:21:03;;;;;;;39.50;31.33;;;11.50;99.90;;;;;;5023190;28;20674;-64
2021/03/02 11:23:28;;;;;;;24.00;21.40;;;11.80;99.90;;;;;;5016130;28;20643;-64
2021/03/02 11:25:54;;;;;;;88.23;80.73;;;12.10;99.90;;;;;;5015516;28;20207;-65
2021/03/02 11:28:19;;;;;;;25.30;20.87;;;12.30;99.90;;;;;;5004518;28;20201;-63
2021/03/02 11:30:46;;;;;;;22.43;19.50;;;12.60;99.90;;;;;;4997379;28;20205;-62
2021/03/02 11:33:13;;;;;;;24.73;18.43;;;12.80;99.90;;;;;;5003558;28;21791;-62
2021/03/02 11:35:39;;;;;;;22.07;17.63;;;12.90;99.90;;;;;;5012683;28;20616;-64
2021/03/02 11:38:06;;;;;;;23.30;19.53;;;13.10;99.90;;;;;;5025252;28;20647;-64
2021/03/02 11:40:32;;;;;;;21.63;18.10;;;13.30;99.90;;;;;;5007389;28;20863;-64
2021/03/02 11:42:58;;;;;;;25.30;18.40;;;13.30;99.90;;;;;;5015606;28;21430;-64
2021/03/02 11:45:25;;;;;;;22.03;17.30;;;13.40;99.90;;;;;;5021918;28;20622;-64
2021/03/02 11:47:51;;;;;;;25.17;20.97;;;13.60;99.90;;;;;;5023896;28;20988;-64
2021/03/02 11:50:18;;;;;;;21.10;17.90;;;13.70;99.90;;;;;;5020711;28;20623;-66
2021/03/02 11:52:44;;;;;;;20.47;18.00;;;13.80;99.90;;;;;;5032969;28;20246;-64
2021/03/02 11:55:11;;;;;;;23.60;20.63;;;14.10;99.90;;;;;;5015131;28;20801;-63
2021/03/02 11:57:37;;;;;;;24.30;19.47;;;14.30;99.90;;;;;;5010399;28;20232;-64
2021/03/02 12:00:18;;;;;;;20.53;18.33;;;14.50;99.90;;;;;;5029485;28;20624;-63
2021/03/02 12:02:45;;;;;;;24.50;19.27;;;14.80;99.90;;;;;;5017855;28;20732;-64
2021/03/02 12:05:11;;;;;;;20.37;18.07;;;15.10;99.90;;;;;;5017815;28;20631;-64
2021/03/02 12:07:37;;;;;;;21.43;18.90;;;15.40;99.90;;;;;;5012744;28;20994;-64
2021/03/02 12:10:09;;;;;;;22.50;19.17;;;15.60;99.90;;;;;;5017927;28;21256;-63
2021/03/02 12:12:35;;;;;;;21.77;18.13;;;15.90;99.90;;;;;;5017312;28;20231;-63
2021/03/02 12:15:01;;;;;;;19.20;17.10;;;16.30;99.90;;;;;;5014994;28;20743;-63
2021/03/02 12:17:26;;;;;;;21.57;17.87;;;16.90;99.90;;;;;;5012446;28;20652;-63
2021/03/02 12:19:52;;;;;;;20.20;18.03;;;17.50;99.90;;;;;;5011893;28;20189;-63
2021/03/02 12:22:19;;;;;;;20.53;18.47;;;18.40;99.90;;;;;;5014824;28;20247;-64
2021/03/02 12:24:45;;;;;;;20.27;18.10;;;19.70;99.90;;;;;;5012543;28;20710;-63
2021/03/02 12:27:13;;;;;;;22.23;18.90;;;21.30;99.90;;;;;;5010071;28;20623;-64
2021/03/02 12:30:09;;;;;;;19.03;17.23;;;23.00;99.90;;;;;;5019788;28;20181;-65
2021/03/02 12:32:36;;;;;;;20.03;18.03;;;25.20;94.50;;;;;;5017371;28;20667;-65
2021/03/02 12:35:02;;;;;;;19.47;17.70;;;27.40;84.50;;;;;;5014112;28;21254;-65
2021/03/02 12:37:27;;;;;;;20.03;18.30;;;28.90;75.90;;;;;;5010134;28;21033;-65
2021/03/02 12:39:53;;;;;;;20.87;19.07;;;30.40;65.90;;;;;;5020822;28;20631;-66
2021/03/02 12:42:21;;;;;;;19.50;17.87;;;31.80;59.80;;;;;;5004867;28;20223;-67
2021/03/02 12:44:47;;;;;;;20.33;18.63;;;33.00;54.20;;;;;;5025866;28;20933;-65
2021/03/02 12:47:12;;;;;;;20.83;19.03;;;34.40;51.30;;;;;;5020215;28;20634;-67
2021/03/02 12:49:38;;;;;;;19.63;18.03;;;35.10;47.90;;;;;;5015581;28;20277;-67
2021/03/02 12:52:06;;;;;;;20.50;18.85;;;36.10;45.40;;;;;;5014529;28;20220;-67
2021/03/02 12:54:32;;;;;;;19.60;18.20;;;37.40;43.30;;;;;;5017132;28;20286;-67
2021/03/02 12:56:58;;;;;;;18.63;17.30;;;38.40;41.50;;;;;;5014496;28;21844;-66
2021/03/02 12:59:23;;;;;;;18.33;16.95;;;38.60;39.60;;;;;;5021680;28;20718;-67
2021/03/02 13:01:49;;;;;;;19.45;17.95;;;39.40;38.30;;;;;;5019437;28;20213;-67
2021/03/02 13:04:15;;;;;;;18.25;16.98;;;40.10;37.40;;;;;;5017147;28;20329;-68
2021/03/02 13:06:41;;;;;;;17.83;16.52;;;40.70;36.10;;;;;;5025239;28;20215;-68
2021/03/02 13:20:33;;;;;;;18.48;17.10;;;40.10;33.40;;;;;;4982329;28;20201;-68
2021/03/02 13:23:53;;;;;;;;;;;;;;;;;;;;;
2021/03/02 13:34:37;;;;;;;;;;;;;;;;;;;;;
2021/03/02 13:51:44;;;;;;;;;;;;;;;;;;;;;
2021/03/02 14:15:59;;;;;;;18.40;16.70;;;27.70;46.10;;;;;;4803452;29;20738;-65
2021/03/02 14:18:24;;;;;;;17.07;15.37;;;27.10;45.80;;;;;;4824573;29;20755;-71
2021/03/02 14:20:55;;;;;;;18.53;16.87;;;26.70;46.30;;;;;;4809658;29;20736;-66
2021/03/02 14:23:22;;;;;;;17.97;16.23;;;26.40;46.70;;;;;;4822634;29;20324;-67
2021/03/02 14:25:47;;;;;;;17.17;15.77;;;26.40;47.00;;;;;;4827075;29;20729;-67
2021/03/02 14:28:13;;;;;;;17.27;15.67;;;26.90;47.30;;;;;;4809237;29;20664;-67
2021/03/02 14:30:39;;;;;;;16.47;15.07;;;27.60;46.90;;;;;;4826686;29;20237;-68
2021/03/02 14:33:05;;;;;;;16.73;15.23;;;28.10;45.70;;;;;;4809023;29;20208;-67
2021/03/02 14:35:31;;;;;;;17.77;16.07;;;27.90;46.00;;;;;;4829478;29;20699;-67
2021/03/02 14:37:57;;;;;;;19.70;18.00;;;27.50;46.40;;;;;;4816778;29;20600;-66
2021/03/02 14:40:23;;;;;;;17.33;15.83;;;27.30;46.00;;;;;;4815922;29;20225;-66
2021/03/02 14:42:55;;;;;;;17.40;15.87;;;27.00;46.90;;;;;;4836810;29;20644;-66
2021/03/02 14:45:27;;;;;;;18.00;16.20;;;26.30;47.50;;;;;;4865448;29;20322;-65
2021/03/02 14:48:01;;;;;;;18.80;17.20;;;25.70;48.10;;;;;;4947644;28;20744;-66